sensor_id;sensor_type;location;lat;lon;timestamp;temperature;humidity
58413;DHT22;44209;52.952;6.790;2023-03-04T00:01:59;6.00;99.90
58413;DHT22;44209;52.952;6.790;2023-03-04T00:04:25;6.00;99.90
58413;DHT22;44209;52.952;6.790;2023-03-04T00:06:51;6.00;99.90
58413;DHT22;44209;52.952;6.790;2023-03-04T00:09:16;6.00;99.90
58413;DHT22;44209;52.952;6.790;2023-03-04T00:11:42;6.00;99.90
58413;DHT22;44209;52.952;6.790;2023-03-04T00:14:08;6.00;99.90
58413;DHT22;44209;52.952;6.790;2023-03-04T00:16:33;6.00;99.90
58413;DHT22;44209;52.952;6.790;2023-03-04T00:18:59;6.00;99.90
58413;DHT22;44209;52.952;6.790;2023-03-04T00:21:25;6.00;99.90
58413;DHT22;44209;52.952;6.790;2023-03-04T00:23:50;6.00;99.90
58413;DHT22;44209;52.952;6.790;2023-03-04T00:26:17;6.00;99.90
58413;DHT22;44209;52.952;6.790;2023-03-04T00:28:42;6.00;99.90
58413;DHT22;44209;52.952;6.790;2023-03-04T00:31:09;6.00;99.90
58413;DHT22;44209;52.952;6.790;2023-03-04T00:33:35;6.00;99.90
58413;DHT22;44209;52.952;6.790;2023-03-04T00:36:03;6.00;99.90
58413;DHT22;44209;52.952;6.790;2023-03-04T00:38:28;6.00;99.90
58413;DHT22;44209;52.952;6.790;2023-03-04T00:40:54;6.00;99.90
58413;DHT22;44209;52.952;6.790;2023-03-04T00:43:20;6.00;99.90
58413;DHT22;44209;52.952;6.790;2023-03-04T00:45:46;6.00;99.90
58413;DHT22;44209;52.952;6.790;2023-03-04T00:48:12;6.00;99.90
58413;DHT22;44209;52.952;6.790;2023-03-04T00:50:39;6.00;99.90
58413;DHT22;44209;52.952;6.790;2023-03-04T00:53:04;6.00;99.90
58413;DHT22;44209;52.952;6.790;2023-03-04T00:55:30;6.00;99.90
58413;DHT22;44209;52.952;6.790;2023-03-04T00:57:56;6.00;99.90
58413;DHT22;44209;52.952;6.790;2023-03-04T01:00:22;6.00;99.90
58413;DHT22;44209;52.952;6.790;2023-03-04T01:02:48;6.00;99.90
58413;DHT22;44209;52.952;6.790;2023-03-04T01:05:14;6.00;99.90
58413;DHT22;44209;52.952;6.790;2023-03-04T01:07:40;6.00;99.90
58413;DHT22;44209;52.952;6.790;2023-03-04T01:10:08;6.00;99.90
58413;DHT22;44209;52.952;6.790;2023-03-04T01:12:35;6.00;99.90
58413;DHT22;44209;52.952;6.790;2023-03-04T01:15:01;6.00;99.90
58413;DHT22;44209;52.952;6.790;2023-03-04T01:17:27;6.00;99.90
58413;DHT22;44209;52.952;6.790;2023-03-04T01:19:53;6.00;99.90
58413;DHT22;44209;52.952;6.790;2023-03-04T01:22:19;6.00;99.90
58413;DHT22;44209;52.952;6.790;2023-03-04T01:24:45;6.00;99.90
58413;DHT22;44209;52.952;6.790;2023-03-04T01:27:11;6.00;99.90
58413;DHT22;44209;52.952;6.790;2023-03-04T01:29:36;6.00;99.90
58413;DHT22;44209;52.952;6.790;2023-03-04T01:32:03;6.00;99.90
58413;DHT22;44209;52.952;6.790;2023-03-04T01:34:29;6.00;99.90
58413;DHT22;44209;52.952;6.790;2023-03-04T01:36:54;6.00;99.90
58413;DHT22;44209;52.952;6.790;2023-03-04T01:39:20;6.00;99.90
58413;DHT22;44209;52.952;6.790;2023-03-04T01:41:46;6.00;99.90
58413;DHT22;44209;52.952;6.790;2023-03-04T01:44:12;6.00;99.90
58413;DHT22;44209;52.952;6.790;2023-03-04T01:46:40;6.00;99.90
58413;DHT22;44209;52.952;6.790;2023-03-04T01:49:08;6.00;99.90
58413;DHT22;44209;52.952;6.790;2023-03-04T01:51:36;6.00;99.90
58413;DHT22;44209;52.952;6.790;2023-03-04T01:54:02;6.00;99.90
58413;DHT22;44209;52.952;6.790;2023-03-04T01:56:29;6.00;99.90
58413;DHT22;44209;52.952;6.790;2023-03-04T01:59:17;6.00;99.90
58413;DHT22;44209;52.952;6.790;2023-03-04T02:01:49;6.00;99.90
58413;DHT22;44209;52.952;6.790;2023-03-04T02:04:17;6.00;99.90
58413;DHT22;44209;52.952;6.790;2023-03-04T02:06:43;6.00;99.90
58413;DHT22;44209;52.952;6.790;2023-03-04T02:09:10;6.00;99.90
58413;DHT22;44209;52.952;6.790;2023-03-04T02:11:37;5.90;99.90
58413;DHT22;44209;52.952;6.790;2023-03-04T02:14:03;5.90;99.90
58413;DHT22;44209;52.952;6.790;2023-03-04T02:16:30;5.90;99.90
58413;DHT22;44209;52.952;6.790;2023-03-04T02:18:56;5.90;99.90
58413;DHT22;44209;52.952;6.790;2023-03-04T02:21:29;5.90;99.90
58413;DHT22;44209;52.952;6.790;2023-03-04T02:24:22;5.90;99.90
58413;DHT22;44209;52.952;6.790;2023-03-04T02:26:51;5.90;99.90
58413;DHT22;44209;52.952;6.790;2023-03-04T02:29:17;5.90;99.90
58413;DHT22;44209;52.952;6.790;2023-03-04T02:31:46;5.90;99.90
58413;DHT22;44209;52.952;6.790;2023-03-04T02:34:23;5.80;99.90
58413;DHT22;44209;52.952;6.790;2023-03-04T02:36:52;5.80;99.90
58413;DHT22;44209;52.952;6.790;2023-03-04T02:39:28;5.80;99.90
58413;DHT22;44209;52.952;6.790;2023-03-04T02:41:55;5.80;99.90
58413;DHT22;44209;52.952;6.790;2023-03-04T02:44:26;5.80;99.90
58413;DHT22;44209;52.952;6.790;2023-03-04T02:46:53;5.70;99.90
58413;DHT22;44209;52.952;6.790;2023-03-04T02:49:20;5.70;99.90
58413;DHT22;44209;52.952;6.790;2023-03-04T02:51:48;5.70;99.90
58413;DHT22;44209;52.952;6.790;2023-03-04T02:54:20;5.70;99.90
58413;DHT22;44209;52.952;6.790;2023-03-04T02:56:52;5.60;99.90
58413;DHT22;44209;52.952;6.790;2023-03-04T02:59:18;5.60;99.90
58413;DHT22;44209;52.952;6.790;2023-03-04T03:01:44;5.60;99.90
58413;DHT22;44209;52.952;6.790;2023-03-04T03:04:10;5.70;99.90
58413;DHT22;44209;52.952;6.790;2023-03-04T03:06:37;5.60;99.90
58413;DHT22;44209;52.952;6.790;2023-03-04T03:09:03;5.60;99.90
58413;DHT22;44209;52.952;6.790;2023-03-04T03:11:29;5.60;99.90
58413;DHT22;44209;52.952;6.790;2023-03-04T03:13:55;5.60;99.90
58413;DHT22;44209;52.952;6.790;2023-03-04T03:16:22;5.60;99.90
58413;DHT22;44209;52.952;6.790;2023-03-04T03:18:48;5.60;99.90
58413;DHT22;44209;52.952;6.790;2023-03-04T03:21:13;5.70;99.90
58413;DHT22;44209;52.952;6.790;2023-03-04T03:23:39;5.70;99.90
58413;DHT22;44209;52.952;6.790;2023-03-04T03:26:05;5.60;99.90
58413;DHT22;44209;52.952;6.790;2023-03-04T03:28:30;5.60;99.90
58413;DHT22;44209;52.952;6.790;2023-03-04T03:30:56;5.60;99.90
58413;DHT22;44209;52.952;6.790;2023-03-04T03:33:22;5.60;99.90
58413;DHT22;44209;52.952;6.790;2023-03-04T03:35:48;5.70;99.90
58413;DHT22;44209;52.952;6.790;2023-03-04T03:38:13;5.70;99.90
58413;DHT22;44209;52.952;6.790;2023-03-04T03:40:39;5.70;99.90
58413;DHT22;44209;52.952;6.790;2023-03-04T03:43:05;5.70;99.90
58413;DHT22;44209;52.952;6.790;2023-03-04T03:45:31;5.70;99.90
58413;DHT22;44209;52.952;6.790;2023-03-04T03:47:57;5.70;99.90
58413;DHT22;44209;52.952;6.790;2023-03-04T03:50:22;5.70;99.90
58413;DHT22;44209;52.952;6.790;2023-03-04T03:52:48;5.70;99.90
58413;DHT22;44209;52.952;6.790;2023-03-04T03:55:14;5.70;99.90
58413;DHT22;44209;52.952;6.790;2023-03-04T03:57:40;5.70;99.90
58413;DHT22;44209;52.952;6.790;2023-03-04T04:00:06;5.70;99.90
58413;DHT22;44209;52.952;6.790;2023-03-04T04:02:32;5.60;99.90
58413;DHT22;44209;52.952;6.790;2023-03-04T04:04:58;5.60;99.90
58413;DHT22;44209;52.952;6.790;2023-03-04T04:07:23;5.60;99.90
58413;DHT22;44209;52.952;6.790;2023-03-04T04:09:49;5.70;99.90
58413;DHT22;44209;52.952;6.790;2023-03-04T04:12:15;5.70;99.90
58413;DHT22;44209;52.952;6.790;2023-03-04T04:14:42;5.70;99.90
58413;DHT22;44209;52.952;6.790;2023-03-04T04:17:08;5.70;99.90
58413;DHT22;44209;52.952;6.790;2023-03-04T04:19:34;5.70;99.90
58413;DHT22;44209;52.952;6.790;2023-03-04T04:22:00;5.70;99.90
58413;DHT22;44209;52.952;6.790;2023-03-04T04:24:26;5.70;99.90
58413;DHT22;44209;52.952;6.790;2023-03-04T04:26:51;5.70;99.90
58413;DHT22;44209;52.952;6.790;2023-03-04T04:29:17;5.70;99.90
58413;DHT22;44209;52.952;6.790;2023-03-04T04:31:43;5.70;99.90
58413;DHT22;44209;52.952;6.790;2023-03-04T04:34:09;5.70;99.90
58413;DHT22;44209;52.952;6.790;2023-03-04T04:36:35;5.70;99.90
58413;DHT22;44209;52.952;6.790;2023-03-04T04:39:01;5.70;99.90
58413;DHT22;44209;52.952;6.790;2023-03-04T04:41:30;5.70;99.90
58413;DHT22;44209;52.952;6.790;2023-03-04T04:43:56;5.70;99.90
58413;DHT22;44209;52.952;6.790;2023-03-04T04:46:22;5.70;99.90
58413;DHT22;44209;52.952;6.790;2023-03-04T04:48:48;5.70;99.90
58413;DHT22;44209;52.952;6.790;2023-03-04T04:51:14;5.70;99.90
58413;DHT22;44209;52.952;6.790;2023-03-04T04:53:40;5.70;99.90
58413;DHT22;44209;52.952;6.790;2023-03-04T04:56:14;5.60;99.90
58413;DHT22;44209;52.952;6.790;2023-03-04T04:58:42;5.60;99.90
58413;DHT22;44209;52.952;6.790;2023-03-04T05:01:08;5.60;99.90
58413;DHT22;44209;52.952;6.790;2023-03-04T05:03:35;5.60;99.90
58413;DHT22;44209;52.952;6.790;2023-03-04T05:06:01;5.60;99.90
58413;DHT22;44209;52.952;6.790;2023-03-04T05:08:27;5.60;99.90
58413;DHT22;44209;52.952;6.790;2023-03-04T05:10:53;5.60;99.90
58413;DHT22;44209;52.952;6.790;2023-03-04T05:13:18;5.60;99.90
58413;DHT22;44209;52.952;6.790;2023-03-04T05:15:45;5.50;99.90
58413;DHT22;44209;52.952;6.790;2023-03-04T05:18:11;5.60;99.90
58413;DHT22;44209;52.952;6.790;2023-03-04T05:20:36;5.60;99.90
58413;DHT22;44209;52.952;6.790;2023-03-04T05:23:02;5.60;99.90
58413;DHT22;44209;52.952;6.790;2023-03-04T05:25:28;5.50;99.90
58413;DHT22;44209;52.952;6.790;2023-03-04T05:27:53;5.50;99.90
58413;DHT22;44209;52.952;6.790;2023-03-04T05:30:19;5.50;99.90
58413;DHT22;44209;52.952;6.790;2023-03-04T05:32:45;5.60;99.90
58413;DHT22;44209;52.952;6.790;2023-03-04T05:35:11;5.50;99.90
58413;DHT22;44209;52.952;6.790;2023-03-04T05:37:36;5.50;99.90
58413;DHT22;44209;52.952;6.790;2023-03-04T05:40:03;5.50;99.90
58413;DHT22;44209;52.952;6.790;2023-03-04T05:42:29;5.50;99.90
58413;DHT22;44209;52.952;6.790;2023-03-04T05:44:55;5.50;99.90
58413;DHT22;44209;52.952;6.790;2023-03-04T05:47:21;5.50;99.90
58413;DHT22;44209;52.952;6.790;2023-03-04T05:49:46;5.50;99.90
58413;DHT22;44209;52.952;6.790;2023-03-04T05:52:12;5.50;99.90
58413;DHT22;44209;52.952;6.790;2023-03-04T05:54:38;5.50;99.90
58413;DHT22;44209;52.952;6.790;2023-03-04T05:57:04;5.50;99.90
58413;DHT22;44209;52.952;6.790;2023-03-04T05:59:29;5.40;99.90
58413;DHT22;44209;52.952;6.790;2023-03-04T06:01:55;5.40;99.90
58413;DHT22;44209;52.952;6.790;2023-03-04T06:04:21;5.40;99.90
58413;DHT22;44209;52.952;6.790;2023-03-04T06:06:47;5.30;99.90
58413;DHT22;44209;52.952;6.790;2023-03-04T06:09:13;5.30;99.90
58413;DHT22;44209;52.952;6.790;2023-03-04T06:11:39;5.30;99.90
58413;DHT22;44209;52.952;6.790;2023-03-04T06:14:05;5.30;99.90
58413;DHT22;44209;52.952;6.790;2023-03-04T06:16:31;5.30;99.90
58413;DHT22;44209;52.952;6.790;2023-03-04T06:18:57;5.30;99.90
58413;DHT22;44209;52.952;6.790;2023-03-04T06:21:23;5.30;99.90
58413;DHT22;44209;52.952;6.790;2023-03-04T06:23:48;5.40;99.90
58413;DHT22;44209;52.952;6.790;2023-03-04T06:26:14;5.40;99.90
58413;DHT22;44209;52.952;6.790;2023-03-04T06:28:44;5.40;99.90
58413;DHT22;44209;52.952;6.790;2023-03-04T06:31:10;5.40;99.90
58413;DHT22;44209;52.952;6.790;2023-03-04T06:33:36;5.40;99.90
58413;DHT22;44209;52.952;6.790;2023-03-04T06:36:02;5.40;99.90
58413;DHT22;44209;52.952;6.790;2023-03-04T06:38:28;5.40;99.90
58413;DHT22;44209;52.952;6.790;2023-03-04T06:40:53;5.40;99.90
58413;DHT22;44209;52.952;6.790;2023-03-04T06:43:19;5.40;99.90
58413;DHT22;44209;52.952;6.790;2023-03-04T06:45:45;5.50;99.90
58413;DHT22;44209;52.952;6.790;2023-03-04T06:48:11;5.50;99.90
58413;DHT22;44209;52.952;6.790;2023-03-04T06:50:39;5.50;99.90
58413;DHT22;44209;52.952;6.790;2023-03-04T06:53:05;5.50;99.90
58413;DHT22;44209;52.952;6.790;2023-03-04T06:55:30;5.60;99.90
58413;DHT22;44209;52.952;6.790;2023-03-04T06:57:56;5.50;99.90
58413;DHT22;44209;52.952;6.790;2023-03-04T07:00:22;5.60;99.90
58413;DHT22;44209;52.952;6.790;2023-03-04T07:02:50;5.60;99.90
58413;DHT22;44209;52.952;6.790;2023-03-04T07:05:16;5.60;99.90
58413;DHT22;44209;52.952;6.790;2023-03-04T07:07:42;5.60;99.90
58413;DHT22;44209;52.952;6.790;2023-03-04T07:10:08;5.60;99.90
58413;DHT22;44209;52.952;6.790;2023-03-04T07:12:35;5.60;99.90
58413;DHT22;44209;52.952;6.790;2023-03-04T07:15:01;5.60;99.90
58413;DHT22;44209;52.952;6.790;2023-03-04T07:17:27;5.60;99.90
58413;DHT22;44209;52.952;6.790;2023-03-04T07:19:52;5.60;99.90
58413;DHT22;44209;52.952;6.790;2023-03-04T07:22:18;5.60;99.90
58413;DHT22;44209;52.952;6.790;2023-03-04T07:24:44;5.60;99.90
58413;DHT22;44209;52.952;6.790;2023-03-04T07:27:09;5.60;99.90
58413;DHT22;44209;52.952;6.790;2023-03-04T07:29:35;5.70;99.90
58413;DHT22;44209;52.952;6.790;2023-03-04T07:32:01;5.70;99.90
58413;DHT22;44209;52.952;6.790;2023-03-04T07:34:26;5.80;99.90
58413;DHT22;44209;52.952;6.790;2023-03-04T07:36:52;5.80;99.90
58413;DHT22;44209;52.952;6.790;2023-03-04T07:39:18;5.80;99.90
58413;DHT22;44209;52.952;6.790;2023-03-04T07:41:43;5.90;99.90
58413;DHT22;44209;52.952;6.790;2023-03-04T07:44:10;5.90;99.90
58413;DHT22;44209;52.952;6.790;2023-03-04T07:46:37;5.90;99.90
58413;DHT22;44209;52.952;6.790;2023-03-04T07:49:02;5.90;99.90
58413;DHT22;44209;52.952;6.790;2023-03-04T07:51:28;5.90;99.90
58413;DHT22;44209;52.952;6.790;2023-03-04T07:53:59;5.90;99.90
58413;DHT22;44209;52.952;6.790;2023-03-04T07:56:27;5.90;99.90
58413;DHT22;44209;52.952;6.790;2023-03-04T07:58:53;5.90;99.90
58413;DHT22;44209;52.952;6.790;2023-03-04T08:01:38;5.90;99.90
58413;DHT22;44209;52.952;6.790;2023-03-04T08:04:05;5.90;99.90
58413;DHT22;44209;52.952;6.790;2023-03-04T08:06:31;5.90;99.90
58413;DHT22;44209;52.952;6.790;2023-03-04T08:09:00;5.90;99.90
58413;DHT22;44209;52.952;6.790;2023-03-04T08:11:27;5.90;99.90
58413;DHT22;44209;52.952;6.790;2023-03-04T08:13:54;5.90;99.90
58413;DHT22;44209;52.952;6.790;2023-03-04T08:16:22;6.00;99.90
58413;DHT22;44209;52.952;6.790;2023-03-04T08:18:50;6.00;99.90
58413;DHT22;44209;52.952;6.790;2023-03-04T08:21:18;6.00;99.90
58413;DHT22;44209;52.952;6.790;2023-03-04T08:23:44;6.00;99.90
58413;DHT22;44209;52.952;6.790;2023-03-04T08:26:23;6.00;99.90
58413;DHT22;44209;52.952;6.790;2023-03-04T08:28:49;6.10;99.90
58413;DHT22;44209;52.952;6.790;2023-03-04T08:31:17;6.10;99.90
58413;DHT22;44209;52.952;6.790;2023-03-04T08:33:44;6.10;99.90
58413;DHT22;44209;52.952;6.790;2023-03-04T08:36:10;6.20;99.90
58413;DHT22;44209;52.952;6.790;2023-03-04T08:38:36;6.10;99.90
58413;DHT22;44209;52.952;6.790;2023-03-04T08:41:01;6.10;99.90
58413;DHT22;44209;52.952;6.790;2023-03-04T08:43:31;6.10;99.90
58413;DHT22;44209;52.952;6.790;2023-03-04T08:45:57;6.00;99.90
58413;DHT22;44209;52.952;6.790;2023-03-04T08:48:23;6.00;99.90
58413;DHT22;44209;52.952;6.790;2023-03-04T08:50:49;6.00;99.90
58413;DHT22;44209;52.952;6.790;2023-03-04T08:53:16;6.00;99.90
58413;DHT22;44209;52.952;6.790;2023-03-04T08:55:43;6.00;99.90
58413;DHT22;44209;52.952;6.790;2023-03-04T08:58:09;6.00;99.90
58413;DHT22;44209;52.952;6.790;2023-03-04T09:00:38;6.00;99.90
58413;DHT22;44209;52.952;6.790;2023-03-04T09:03:04;6.10;99.90
58413;DHT22;44209;52.952;6.790;2023-03-04T09:05:30;6.20;99.90
58413;DHT22;44209;52.952;6.790;2023-03-04T09:07:56;6.20;99.90
58413;DHT22;44209;52.952;6.790;2023-03-04T09:10:23;6.20;99.90
58413;DHT22;44209;52.952;6.790;2023-03-04T09:12:48;6.20;99.90
58413;DHT22;44209;52.952;6.790;2023-03-04T09:15:14;6.30;99.90
58413;DHT22;44209;52.952;6.790;2023-03-04T09:17:40;6.30;99.90
58413;DHT22;44209;52.952;6.790;2023-03-04T09:20:08;6.30;99.90
58413;DHT22;44209;52.952;6.790;2023-03-04T09:22:38;6.30;99.90
58413;DHT22;44209;52.952;6.790;2023-03-04T09:25:04;6.40;99.90
58413;DHT22;44209;52.952;6.790;2023-03-04T09:27:30;6.40;99.90
58413;DHT22;44209;52.952;6.790;2023-03-04T09:29:56;6.40;99.90
58413;DHT22;44209;52.952;6.790;2023-03-04T09:32:22;6.40;99.90
58413;DHT22;44209;52.952;6.790;2023-03-04T09:34:47;6.50;99.90
58413;DHT22;44209;52.952;6.790;2023-03-04T09:37:13;6.50;99.90
58413;DHT22;44209;52.952;6.790;2023-03-04T09:39:39;6.50;99.90
58413;DHT22;44209;52.952;6.790;2023-03-04T09:42:07;6.50;99.90
58413;DHT22;44209;52.952;6.790;2023-03-04T09:44:37;6.60;99.90
58413;DHT22;44209;52.952;6.790;2023-03-04T09:47:15;6.60;99.90
58413;DHT22;44209;52.952;6.790;2023-03-04T09:49:47;6.70;99.90
58413;DHT22;44209;52.952;6.790;2023-03-04T09:55:26;6.80;99.90
58413;DHT22;44209;52.952;6.790;2023-03-04T09:57:57;6.80;99.90
58413;DHT22;44209;52.952;6.790;2023-03-04T10:00:41;6.80;99.90
58413;DHT22;44209;52.952;6.790;2023-03-04T10:10:58;6.70;99.90
58413;DHT22;44209;52.952;6.790;2023-03-04T10:16:41;6.50;99.90
58413;DHT22;44209;52.952;6.790;2023-03-04T10:22:58;6.50;99.90
58413;DHT22;44209;52.952;6.790;2023-03-04T10:33:20;6.90;99.90
58413;DHT22;44209;52.952;6.790;2023-03-04T10:36:02;7.00;99.90
58413;DHT22;44209;52.952;6.790;2023-03-04T10:38:34;7.20;99.90
58413;DHT22;44209;52.952;6.790;2023-03-04T10:41:00;7.30;99.90
58413;DHT22;44209;52.952;6.790;2023-03-04T10:43:27;7.20;99.90
58413;DHT22;44209;52.952;6.790;2023-03-04T10:45:56;7.20;99.90
58413;DHT22;44209;52.952;6.790;2023-03-04T10:48:24;7.10;99.90
58413;DHT22;44209;52.952;6.790;2023-03-04T10:50:51;7.00;99.90
58413;DHT22;44209;52.952;6.790;2023-03-04T10:53:43;7.00;99.90
58413;DHT22;44209;52.952;6.790;2023-03-04T10:56:39;6.80;99.90
58413;DHT22;44209;52.952;6.790;2023-03-04T11:01:50;6.80;99.90
58413;DHT22;44209;52.952;6.790;2023-03-04T11:04:18;6.80;99.90
58413;DHT22;44209;52.952;6.790;2023-03-04T11:06:44;6.90;99.90
58413;DHT22;44209;52.952;6.790;2023-03-04T11:09:25;7.00;99.90
58413;DHT22;44209;52.952;6.790;2023-03-04T11:11:52;7.10;99.90
58413;DHT22;44209;52.952;6.790;2023-03-04T11:14:34;7.00;99.90
58413;DHT22;44209;52.952;6.790;2023-03-04T11:17:15;7.10;99.90
58413;DHT22;44209;52.952;6.790;2023-03-04T11:19:45;7.10;99.90
58413;DHT22;44209;52.952;6.790;2023-03-04T11:22:17;7.10;99.90
58413;DHT22;44209;52.952;6.790;2023-03-04T11:24:44;7.00;99.90
58413;DHT22;44209;52.952;6.790;2023-03-04T11:27:24;6.90;99.90
58413;DHT22;44209;52.952;6.790;2023-03-04T11:30:24;6.90;99.90
58413;DHT22;44209;52.952;6.790;2023-03-04T11:32:49;6.90;99.90
58413;DHT22;44209;52.952;6.790;2023-03-04T11:35:26;6.90;99.90
58413;DHT22;44209;52.952;6.790;2023-03-04T11:38:23;6.90;99.90
58413;DHT22;44209;52.952;6.790;2023-03-04T11:41:32;7.00;99.90
58413;DHT22;44209;52.952;6.790;2023-03-04T11:43:50;7.10;99.90
58413;DHT22;44209;52.952;6.790;2023-03-04T11:56:55;6.90;99.90
58413;DHT22;44209;52.952;6.790;2023-03-04T11:59:37;7.00;99.90
58413;DHT22;44209;52.952;6.790;2023-03-04T12:02:21;7.00;99.90
58413;DHT22;44209;52.952;6.790;2023-03-04T12:07:49;7.20;99.90
58413;DHT22;44209;52.952;6.790;2023-03-04T12:24:27;7.00;99.90
58413;DHT22;44209;52.952;6.790;2023-03-04T12:38:23;6.90;99.90
58413;DHT22;44209;52.952;6.790;2023-03-04T12:41:15;7.10;99.90
58413;DHT22;44209;52.952;6.790;2023-03-04T12:49:29;7.20;99.90
58413;DHT22;44209;52.952;6.790;2023-03-04T12:57:25;7.20;99.90
58413;DHT22;44209;52.952;6.790;2023-03-04T12:59:59;7.30;99.90
58413;DHT22;44209;52.952;6.790;2023-03-04T13:11:31;7.10;99.90
58413;DHT22;44209;52.952;6.790;2023-03-04T13:14:05;7.10;99.90
58413;DHT22;44209;52.952;6.790;2023-03-04T13:16:35;6.90;99.90
58413;DHT22;44209;52.952;6.790;2023-03-04T13:24:56;7.00;99.90
58413;DHT22;44209;52.952;6.790;2023-03-04T13:28:04;7.00;99.90
58413;DHT22;44209;52.952;6.790;2023-03-04T13:41:12;7.40;99.90
58413;DHT22;44209;52.952;6.790;2023-03-04T13:43:42;7.20;99.90
58413;DHT22;44209;52.952;6.790;2023-03-04T13:51:24;6.50;99.90
58413;DHT22;44209;52.952;6.790;2023-03-04T13:53:53;6.40;99.90
58413;DHT22;44209;52.952;6.790;2023-03-04T13:56:27;6.40;99.90
58413;DHT22;44209;52.952;6.790;2023-03-04T14:01:35;6.50;99.90
58413;DHT22;44209;52.952;6.790;2023-03-04T14:04:15;6.60;99.90
58413;DHT22;44209;52.952;6.790;2023-03-04T14:06:43;6.80;99.90
58413;DHT22;44209;52.952;6.790;2023-03-04T14:09:21;7.00;99.90
58413;DHT22;44209;52.952;6.790;2023-03-04T14:11:48;7.20;99.90
58413;DHT22;44209;52.952;6.790;2023-03-04T14:14:18;7.20;99.90
58413;DHT22;44209;52.952;6.790;2023-03-04T14:16:53;7.20;99.90
58413;DHT22;44209;52.952;6.790;2023-03-04T14:19:27;7.20;99.90
58413;DHT22;44209;52.952;6.790;2023-03-04T14:21:53;7.00;99.90
58413;DHT22;44209;52.952;6.790;2023-03-04T14:24:21;7.00;99.90
58413;DHT22;44209;52.952;6.790;2023-03-04T14:26:47;7.10;99.90
58413;DHT22;44209;52.952;6.790;2023-03-04T14:29:25;7.30;99.90
58413;DHT22;44209;52.952;6.790;2023-03-04T14:31:52;7.50;99.90
58413;DHT22;44209;52.952;6.790;2023-03-04T14:34:38;7.50;99.90
58413;DHT22;44209;52.952;6.790;2023-03-04T14:37:19;7.40;99.90
58413;DHT22;44209;52.952;6.790;2023-03-04T14:39:52;7.20;99.90
58413;DHT22;44209;52.952;6.790;2023-03-04T14:42:22;7.20;99.90
58413;DHT22;44209;52.952;6.790;2023-03-04T14:44:50;7.10;99.90
58413;DHT22;44209;52.952;6.790;2023-03-04T14:47:20;7.00;99.90
58413;DHT22;44209;52.952;6.790;2023-03-04T14:49:48;7.00;99.90
58413;DHT22;44209;52.952;6.790;2023-03-04T14:57:38;6.70;99.90
58413;DHT22;44209;52.952;6.790;2023-03-04T15:00:25;6.40;99.90
58413;DHT22;44209;52.952;6.790;2023-03-04T15:02:54;6.10;99.90
58413;DHT22;44209;52.952;6.790;2023-03-04T15:05:30;5.80;99.90
58413;DHT22;44209;52.952;6.790;2023-03-04T15:08:00;5.70;99.90
58413;DHT22;44209;52.952;6.790;2023-03-04T15:10:35;5.60;99.90
58413;DHT22;44209;52.952;6.790;2023-03-04T15:13:06;5.60;99.90
58413;DHT22;44209;52.952;6.790;2023-03-04T15:15:36;5.70;99.90
58413;DHT22;44209;52.952;6.790;2023-03-04T15:18:22;5.70;99.90
58413;DHT22;44209;52.952;6.790;2023-03-04T15:20:53;5.80;99.90
58413;DHT22;44209;52.952;6.790;2023-03-04T15:23:19;5.80;99.90
58413;DHT22;44209;52.952;6.790;2023-03-04T15:25:45;5.90;99.90
58413;DHT22;44209;52.952;6.790;2023-03-04T15:28:17;6.00;99.90
58413;DHT22;44209;52.952;6.790;2023-03-04T15:30:43;5.90;99.90
58413;DHT22;44209;52.952;6.790;2023-03-04T15:33:10;5.80;99.90
58413;DHT22;44209;52.952;6.790;2023-03-04T15:35:36;5.60;99.90
58413;DHT22;44209;52.952;6.790;2023-03-04T15:38:05;5.60;99.90
58413;DHT22;44209;52.952;6.790;2023-03-04T15:40:34;5.60;99.90
58413;DHT22;44209;52.952;6.790;2023-03-04T15:43:02;5.60;99.90
58413;DHT22;44209;52.952;6.790;2023-03-04T15:45:34;5.70;99.90
58413;DHT22;44209;52.952;6.790;2023-03-04T15:48:02;5.70;99.90
58413;DHT22;44209;52.952;6.790;2023-03-04T15:50:36;5.80;99.90
58413;DHT22;44209;52.952;6.790;2023-03-04T15:53:07;5.80;99.90
58413;DHT22;44209;52.952;6.790;2023-03-04T15:55:33;5.80;99.90
58413;DHT22;44209;52.952;6.790;2023-03-04T15:57:59;5.80;99.90
58413;DHT22;44209;52.952;6.790;2023-03-04T16:00:26;5.80;99.90
58413;DHT22;44209;52.952;6.790;2023-03-04T16:02:52;5.80;99.90
58413;DHT22;44209;52.952;6.790;2023-03-04T16:05:18;5.80;99.90
58413;DHT22;44209;52.952;6.790;2023-03-04T16:07:47;5.80;99.90
58413;DHT22;44209;52.952;6.790;2023-03-04T16:10:25;5.80;99.90
58413;DHT22;44209;52.952;6.790;2023-03-04T16:12:52;5.70;99.90
58413;DHT22;44209;52.952;6.790;2023-03-04T16:15:27;5.60;99.90
58413;DHT22;44209;52.952;6.790;2023-03-04T16:17:53;5.60;99.90
58413;DHT22;44209;52.952;6.790;2023-03-04T16:20:26;5.60;99.90
58413;DHT22;44209;52.952;6.790;2023-03-04T16:22:55;5.50;99.90
58413;DHT22;44209;52.952;6.790;2023-03-04T16:25:22;5.60;99.90
58413;DHT22;44209;52.952;6.790;2023-03-04T16:27:50;5.50;99.90
58413;DHT22;44209;52.952;6.790;2023-03-04T16:30:19;5.60;99.90
58413;DHT22;44209;52.952;6.790;2023-03-04T16:32:46;5.50;99.90
58413;DHT22;44209;52.952;6.790;2023-03-04T16:35:13;5.50;99.90
58413;DHT22;44209;52.952;6.790;2023-03-04T16:37:39;5.50;99.90
58413;DHT22;44209;52.952;6.790;2023-03-04T16:40:07;5.40;99.90
58413;DHT22;44209;52.952;6.790;2023-03-04T16:42:34;5.30;99.90
58413;DHT22;44209;52.952;6.790;2023-03-04T16:44:59;5.30;99.90
58413;DHT22;44209;52.952;6.790;2023-03-04T16:47:25;5.30;99.90
58413;DHT22;44209;52.952;6.790;2023-03-04T16:49:52;5.20;99.90
58413;DHT22;44209;52.952;6.790;2023-03-04T16:52:25;5.20;99.90
58413;DHT22;44209;52.952;6.790;2023-03-04T16:54:52;5.20;99.90
58413;DHT22;44209;52.952;6.790;2023-03-04T16:57:18;5.10;99.90
58413;DHT22;44209;52.952;6.790;2023-03-04T16:59:44;5.10;99.90
58413;DHT22;44209;52.952;6.790;2023-03-04T17:02:20;5.10;99.90
58413;DHT22;44209;52.952;6.790;2023-03-04T17:04:48;5.10;99.90
58413;DHT22;44209;52.952;6.790;2023-03-04T17:07:14;5.10;99.90
58413;DHT22;44209;52.952;6.790;2023-03-04T17:09:40;5.10;99.90
58413;DHT22;44209;52.952;6.790;2023-03-04T17:12:09;5.10;99.90
58413;DHT22;44209;52.952;6.790;2023-03-04T17:14:36;5.10;99.90
58413;DHT22;44209;52.952;6.790;2023-03-04T17:17:03;5.10;99.90
58413;DHT22;44209;52.952;6.790;2023-03-04T17:19:29;5.10;99.90
58413;DHT22;44209;52.952;6.790;2023-03-04T17:21:56;5.10;99.90
58413;DHT22;44209;52.952;6.790;2023-03-04T17:24:22;5.10;99.90
58413;DHT22;44209;52.952;6.790;2023-03-04T17:26:48;5.10;99.90
58413;DHT22;44209;52.952;6.790;2023-03-04T17:29:14;5.10;99.90
58413;DHT22;44209;52.952;6.790;2023-03-04T17:31:40;5.10;99.90
58413;DHT22;44209;52.952;6.790;2023-03-04T17:34:05;5.10;99.90
58413;DHT22;44209;52.952;6.790;2023-03-04T17:36:31;5.10;99.90
58413;DHT22;44209;52.952;6.790;2023-03-04T17:38:59;5.10;99.90
58413;DHT22;44209;52.952;6.790;2023-03-04T17:41:25;5.10;99.90
58413;DHT22;44209;52.952;6.790;2023-03-04T17:43:52;5.10;99.90
58413;DHT22;44209;52.952;6.790;2023-03-04T17:46:20;5.00;99.90
58413;DHT22;44209;52.952;6.790;2023-03-04T17:48:47;5.10;99.90
58413;DHT22;44209;52.952;6.790;2023-03-04T17:51:14;5.00;99.90